sensor_id;sensor_type;location;lat;lon;timestamp;temperature;humidity
67722;SHT31;58309;45.292;11.820;2023-09-18T00:01:47;20.46;99.99
67722;SHT31;58309;45.292;11.820;2023-09-18T00:04:13;20.46;99.99
67722;SHT31;58309;45.292;11.820;2023-09-18T00:06:38;20.51;99.99
67722;SHT31;58309;45.292;11.820;2023-09-18T00:09:04;20.51;99.99
67722;SHT31;58309;45.292;11.820;2023-09-18T00:11:30;20.50;99.99
67722;SHT31;58309;45.292;11.820;2023-09-18T00:13:55;20.51;99.99
67722;SHT31;58309;45.292;11.820;2023-09-18T00:16:20;20.46;99.99
67722;SHT31;58309;45.292;11.820;2023-09-18T00:18:46;20.40;99.99
67722;SHT31;58309;45.292;11.820;2023-09-18T00:21:11;20.37;99.99
67722;SHT31;58309;45.292;11.820;2023-09-18T00:23:40;20.37;99.99
67722;SHT31;58309;45.292;11.820;2023-09-18T00:26:05;20.40;99.99
67722;SHT31;58309;45.292;11.820;2023-09-18T00:28:31;20.30;99.99
67722;SHT31;58309;45.292;11.820;2023-09-18T00:30:56;20.29;99.99
67722;SHT31;58309;45.292;11.820;2023-09-18T00:33:22;20.22;99.99
67722;SHT31;58309;45.292;11.820;2023-09-18T00:35:49;20.17;99.99
67722;SHT31;58309;45.292;11.820;2023-09-18T00:38:15;20.13;99.99
67722;SHT31;58309;45.292;11.820;2023-09-18T00:40:41;20.13;99.99
67722;SHT31;58309;45.292;11.820;2023-09-18T00:43:07;20.12;99.99
67722;SHT31;58309;45.292;11.820;2023-09-18T00:45:34;20.12;99.99
67722;SHT31;58309;45.292;11.820;2023-09-18T00:48:01;20.09;99.99
67722;SHT31;58309;45.292;11.820;2023-09-18T00:50:27;20.10;99.99
67722;SHT31;58309;45.292;11.820;2023-09-18T00:52:52;20.12;99.99
67722;SHT31;58309;45.292;11.820;2023-09-18T00:55:18;20.12;99.99
67722;SHT31;58309;45.292;11.820;2023-09-18T00:57:45;20.09;99.99
67722;SHT31;58309;45.292;11.820;2023-09-18T01:00:12;20.03;99.99
67722;SHT31;58309;45.292;11.820;2023-09-18T01:02:42;20.06;99.99
67722;SHT31;58309;45.292;11.820;2023-09-18T01:05:08;20.02;99.99
67722;SHT31;58309;45.292;11.820;2023-09-18T01:07:34;20.00;99.99
67722;SHT31;58309;45.292;11.820;2023-09-18T01:09:59;19.97;99.99
67722;SHT31;58309;45.292;11.820;2023-09-18T01:12:37;20.06;99.99
67722;SHT31;58309;45.292;11.820;2023-09-18T01:15:14;20.03;99.99
67722;SHT31;58309;45.292;11.820;2023-09-18T01:17:42;20.02;99.99
67722;SHT31;58309;45.292;11.820;2023-09-18T01:20:11;19.95;99.99
67722;SHT31;58309;45.292;11.820;2023-09-18T01:22:37;19.95;99.99
67722;SHT31;58309;45.292;11.820;2023-09-18T01:25:02;19.92;99.99
67722;SHT31;58309;45.292;11.820;2023-09-18T01:27:28;19.90;99.99
67722;SHT31;58309;45.292;11.820;2023-09-18T01:29:53;19.90;99.99
67722;SHT31;58309;45.292;11.820;2023-09-18T01:32:19;19.90;99.99
67722;SHT31;58309;45.292;11.820;2023-09-18T01:34:51;19.92;99.99
67722;SHT31;58309;45.292;11.820;2023-09-18T01:37:20;19.90;99.99
67722;SHT31;58309;45.292;11.820;2023-09-18T01:39:48;19.87;99.99
67722;SHT31;58309;45.292;11.820;2023-09-18T01:42:14;19.92;99.99
67722;SHT31;58309;45.292;11.820;2023-09-18T01:44:41;19.87;99.99
67722;SHT31;58309;45.292;11.820;2023-09-18T01:47:10;19.83;99.99
67722;SHT31;58309;45.292;11.820;2023-09-18T01:49:38;19.83;99.99
67722;SHT31;58309;45.292;11.820;2023-09-18T01:52:04;19.81;99.99
67722;SHT31;58309;45.292;11.820;2023-09-18T01:54:31;19.85;99.99
67722;SHT31;58309;45.292;11.820;2023-09-18T01:56:57;19.86;99.99
67722;SHT31;58309;45.292;11.820;2023-09-18T01:59:23;19.83;99.99
67722;SHT31;58309;45.292;11.820;2023-09-18T02:01:50;19.83;99.99
67722;SHT31;58309;45.292;11.820;2023-09-18T02:04:15;19.83;99.99
67722;SHT31;58309;45.292;11.820;2023-09-18T02:06:42;19.86;99.99
67722;SHT31;58309;45.292;11.820;2023-09-18T02:09:08;19.82;99.99
67722;SHT31;58309;45.292;11.820;2023-09-18T02:11:38;19.82;99.99
67722;SHT31;58309;45.292;11.820;2023-09-18T02:14:04;19.82;99.99
67722;SHT31;58309;45.292;11.820;2023-09-18T02:16:32;19.79;99.99
67722;SHT31;58309;45.292;11.820;2023-09-18T02:18:58;19.81;99.99
67722;SHT31;58309;45.292;11.820;2023-09-18T02:21:23;19.85;99.99
67722;SHT31;58309;45.292;11.820;2023-09-18T02:23:52;19.82;99.99
67722;SHT31;58309;45.292;11.820;2023-09-18T02:26:22;19.85;99.99
67722;SHT31;58309;45.292;11.820;2023-09-18T02:28:48;19.83;99.99
67722;SHT31;58309;45.292;11.820;2023-09-18T02:31:14;19.86;99.99
67722;SHT31;58309;45.292;11.820;2023-09-18T02:33:40;19.89;99.99
67722;SHT31;58309;45.292;11.820;2023-09-18T02:36:06;19.90;99.99
67722;SHT31;58309;45.292;11.820;2023-09-18T02:38:35;19.95;99.99
67722;SHT31;58309;45.292;11.820;2023-09-18T02:41:01;19.93;99.99
67722;SHT31;58309;45.292;11.820;2023-09-18T02:43:26;19.90;99.99
67722;SHT31;58309;45.292;11.820;2023-09-18T02:45:52;19.92;99.99
67722;SHT31;58309;45.292;11.820;2023-09-18T02:48:18;19.89;99.99
67722;SHT31;58309;45.292;11.820;2023-09-18T02:50:44;19.87;99.99
67722;SHT31;58309;45.292;11.820;2023-09-18T02:53:23;19.83;99.99
67722;SHT31;58309;45.292;11.820;2023-09-18T02:55:53;19.87;99.99
67722;SHT31;58309;45.292;11.820;2023-09-18T02:58:20;19.90;99.99
67722;SHT31;58309;45.292;11.820;2023-09-18T03:00:48;19.95;99.99
67722;SHT31;58309;45.292;11.820;2023-09-18T03:03:14;19.92;99.99
67722;SHT31;58309;45.292;11.820;2023-09-18T03:05:41;19.92;99.99
67722;SHT31;58309;45.292;11.820;2023-09-18T03:08:07;19.89;99.99
67722;SHT31;58309;45.292;11.820;2023-09-18T03:10:38;19.86;99.99
67722;SHT31;58309;45.292;11.820;2023-09-18T03:13:05;19.85;99.99
67722;SHT31;58309;45.292;11.820;2023-09-18T03:15:31;19.82;99.99
67722;SHT31;58309;45.292;11.820;2023-09-18T03:17:57;19.79;99.99
67722;SHT31;58309;45.292;11.820;2023-09-18T03:20:24;19.78;99.99
67722;SHT31;58309;45.292;11.820;2023-09-18T03:22:50;19.74;99.99
67722;SHT31;58309;45.292;11.820;2023-09-18T03:25:16;19.71;99.99
67722;SHT31;58309;45.292;11.820;2023-09-18T03:27:42;19.65;99.99
67722;SHT31;58309;45.292;11.820;2023-09-18T03:30:08;19.65;99.99
67722;SHT31;58309;45.292;11.820;2023-09-18T03:32:33;19.64;99.99
67722;SHT31;58309;45.292;11.820;2023-09-18T03:34:59;19.65;99.99
67722;SHT31;58309;45.292;11.820;2023-09-18T03:37:24;19.65;99.99
67722;SHT31;58309;45.292;11.820;2023-09-18T03:39:50;19.72;99.99
67722;SHT31;58309;45.292;11.820;2023-09-18T03:42:15;19.78;99.99
67722;SHT31;58309;45.292;11.820;2023-09-18T03:44:41;19.75;99.99
67722;SHT31;58309;45.292;11.820;2023-09-18T03:47:06;19.74;99.99
67722;SHT31;58309;45.292;11.820;2023-09-18T03:49:31;19.75;99.99
67722;SHT31;58309;45.292;11.820;2023-09-18T03:51:57;19.74;99.99
67722;SHT31;58309;45.292;11.820;2023-09-18T03:54:22;19.72;99.99
67722;SHT31;58309;45.292;11.820;2023-09-18T03:56:48;19.71;99.99
67722;SHT31;58309;45.292;11.820;2023-09-18T03:59:13;19.65;99.99
67722;SHT31;58309;45.292;11.820;2023-09-18T04:01:39;19.65;99.99
67722;SHT31;58309;45.292;11.820;2023-09-18T04:04:05;19.64;99.99
67722;SHT31;58309;45.292;11.820;2023-09-18T04:06:43;19.59;99.99
67722;SHT31;58309;45.292;11.820;2023-09-18T04:09:09;19.59;99.99
67722;SHT31;58309;45.292;11.820;2023-09-18T04:11:35;19.61;99.99
67722;SHT31;58309;45.292;11.820;2023-09-18T04:14:01;19.62;99.99
67722;SHT31;58309;45.292;11.820;2023-09-18T04:16:27;19.69;99.99
67722;SHT31;58309;45.292;11.820;2023-09-18T04:19:02;19.79;99.99
67722;SHT31;58309;45.292;11.820;2023-09-18T04:21:28;19.87;99.99
67722;SHT31;58309;45.292;11.820;2023-09-18T04:23:55;19.92;99.99
67722;SHT31;58309;45.292;11.820;2023-09-18T04:26:26;19.97;99.99
67722;SHT31;58309;45.292;11.820;2023-09-18T04:29:01;20.03;99.99
67722;SHT31;58309;45.292;11.820;2023-09-18T04:31:27;20.03;99.99
67722;SHT31;58309;45.292;11.820;2023-09-18T04:33:54;20.05;99.99
67722;SHT31;58309;45.292;11.820;2023-09-18T04:36:19;20.09;99.99
67722;SHT31;58309;45.292;11.820;2023-09-18T04:38:45;20.13;99.99
67722;SHT31;58309;45.292;11.820;2023-09-18T04:41:10;20.17;99.99
67722;SHT31;58309;45.292;11.820;2023-09-18T04:43:37;20.20;99.99
67722;SHT31;58309;45.292;11.820;2023-09-18T04:46:05;20.23;99.99
67722;SHT31;58309;45.292;11.820;2023-09-18T04:48:31;20.24;99.99
67722;SHT31;58309;45.292;11.820;2023-09-18T04:50:58;20.26;99.99
67722;SHT31;58309;45.292;11.820;2023-09-18T04:53:24;20.27;99.99
67722;SHT31;58309;45.292;11.820;2023-09-18T04:55:49;20.27;99.99
67722;SHT31;58309;45.292;11.820;2023-09-18T04:58:16;20.26;99.99
67722;SHT31;58309;45.292;11.820;2023-09-18T05:00:42;20.26;99.99
67722;SHT31;58309;45.292;11.820;2023-09-18T05:03:07;20.24;99.99
67722;SHT31;58309;45.292;11.820;2023-09-18T05:05:36;20.26;99.99
67722;SHT31;58309;45.292;11.820;2023-09-18T05:08:07;20.24;99.99
67722;SHT31;58309;45.292;11.820;2023-09-18T05:10:36;20.22;99.99
67722;SHT31;58309;45.292;11.820;2023-09-18T05:13:02;20.20;99.99
67722;SHT31;58309;45.292;11.820;2023-09-18T05:15:28;20.24;99.99
67722;SHT31;58309;45.292;11.820;2023-09-18T05:17:58;20.27;99.99
67722;SHT31;58309;45.292;11.820;2023-09-18T05:20:25;20.32;99.99
67722;SHT31;58309;45.292;11.820;2023-09-18T05:22:52;20.32;99.99
67722;SHT31;58309;45.292;11.820;2023-09-18T05:25:21;20.34;99.99
67722;SHT31;58309;45.292;11.820;2023-09-18T05:27:48;20.36;99.99
67722;SHT31;58309;45.292;11.820;2023-09-18T05:30:18;20.41;99.99
67722;SHT31;58309;45.292;11.820;2023-09-18T05:32:46;20.44;99.99
67722;SHT31;58309;45.292;11.820;2023-09-18T05:35:13;20.47;99.99
67722;SHT31;58309;45.292;11.820;2023-09-18T05:37:39;20.51;99.99
67722;SHT31;58309;45.292;11.820;2023-09-18T05:40:06;20.53;99.99
67722;SHT31;58309;45.292;11.820;2023-09-18T05:42:38;20.57;99.99
67722;SHT31;58309;45.292;11.820;2023-09-18T05:45:04;20.57;99.99
67722;SHT31;58309;45.292;11.820;2023-09-18T05:47:34;20.61;99.99
67722;SHT31;58309;45.292;11.820;2023-09-18T05:50:01;20.65;99.99
67722;SHT31;58309;45.292;11.820;2023-09-18T05:52:31;20.73;99.99
67722;SHT31;58309;45.292;11.820;2023-09-18T05:54:56;20.81;99.99
67722;SHT31;58309;45.292;11.820;2023-09-18T05:57:21;20.88;99.99
67722;SHT31;58309;45.292;11.820;2023-09-18T05:59:47;20.98;99.99
67722;SHT31;58309;45.292;11.820;2023-09-18T06:02:13;21.08;99.99
67722;SHT31;58309;45.292;11.820;2023-09-18T06:04:38;21.21;99.99
67722;SHT31;58309;45.292;11.820;2023-09-18T06:07:04;21.32;99.99
67722;SHT31;58309;45.292;11.820;2023-09-18T06:09:32;21.42;99.99
67722;SHT31;58309;45.292;11.820;2023-09-18T06:11:58;21.52;99.99
67722;SHT31;58309;45.292;11.820;2023-09-18T06:14:24;21.55;99.99
67722;SHT31;58309;45.292;11.820;2023-09-18T06:16:50;21.64;99.99
67722;SHT31;58309;45.292;11.820;2023-09-18T06:19:16;21.70;99.99
67722;SHT31;58309;45.292;11.820;2023-09-18T06:21:44;21.76;99.99
67722;SHT31;58309;45.292;11.820;2023-09-18T06:24:10;21.83;99.99
67722;SHT31;58309;45.292;11.820;2023-09-18T06:26:35;21.87;98.94
67722;SHT31;58309;45.292;11.820;2023-09-18T06:29:01;21.90;98.80
67722;SHT31;58309;45.292;11.820;2023-09-18T06:31:27;21.96;98.79
67722;SHT31;58309;45.292;11.820;2023-09-18T06:33:53;21.96;98.67
67722;SHT31;58309;45.292;11.820;2023-09-18T06:36:19;21.96;98.28
67722;SHT31;58309;45.292;11.820;2023-09-18T06:38:44;21.98;98.18
67722;SHT31;58309;45.292;11.820;2023-09-18T06:41:10;21.98;97.97
67722;SHT31;58309;45.292;11.820;2023-09-18T06:43:35;22.04;98.22
67722;SHT31;58309;45.292;11.820;2023-09-18T06:46:01;22.08;98.03
67722;SHT31;58309;45.292;11.820;2023-09-18T06:48:26;22.14;97.93
67722;SHT31;58309;45.292;11.820;2023-09-18T06:50:51;22.14;97.86
67722;SHT31;58309;45.292;11.820;2023-09-18T06:53:17;22.21;98.00
67722;SHT31;58309;45.292;11.820;2023-09-18T06:55:42;22.30;97.66
67722;SHT31;58309;45.292;11.820;2023-09-18T06:58:08;22.47;97.47
67722;SHT31;58309;45.292;11.820;2023-09-18T07:00:33;22.52;96.97
67722;SHT31;58309;45.292;11.820;2023-09-18T07:02:59;22.55;96.87
67722;SHT31;58309;45.292;11.820;2023-09-18T07:05:24;22.56;96.70
67722;SHT31;58309;45.292;11.820;2023-09-18T07:07:50;22.59;96.95
67722;SHT31;58309;45.292;11.820;2023-09-18T07:10:15;22.52;96.79
67722;SHT31;58309;45.292;11.820;2023-09-18T07:12:41;22.61;96.88
67722;SHT31;58309;45.292;11.820;2023-09-18T07:15:06;22.62;96.41
67722;SHT31;58309;45.292;11.820;2023-09-18T07:17:33;22.64;96.01
67722;SHT31;58309;45.292;11.820;2023-09-18T07:19:58;22.62;96.24
67722;SHT31;58309;45.292;11.820;2023-09-18T07:22:25;22.66;96.77
67722;SHT31;58309;45.292;11.820;2023-09-18T07:24:51;22.76;95.79
67722;SHT31;58309;45.292;11.820;2023-09-18T07:27:16;22.88;95.73
67722;SHT31;58309;45.292;11.820;2023-09-18T07:29:42;23.12;95.25
67722;SHT31;58309;45.292;11.820;2023-09-18T07:32:07;23.34;94.68
67722;SHT31;58309;45.292;11.820;2023-09-18T07:34:34;23.68;93.44
67722;SHT31;58309;45.292;11.820;2023-09-18T07:37:00;23.97;92.90
67722;SHT31;58309;45.292;11.820;2023-09-18T07:39:26;24.11;91.60
67722;SHT31;58309;45.292;11.820;2023-09-18T07:41:51;24.28;91.11
67722;SHT31;58309;45.292;11.820;2023-09-18T07:44:21;24.40;90.75
67722;SHT31;58309;45.292;11.820;2023-09-18T07:46:47;24.45;90.59
67722;SHT31;58309;45.292;11.820;2023-09-18T07:49:13;24.60;89.88
67722;SHT31;58309;45.292;11.820;2023-09-18T07:51:39;24.67;89.73
67722;SHT31;58309;45.292;11.820;2023-09-18T07:54:06;24.45;90.51
67722;SHT31;58309;45.292;11.820;2023-09-18T07:56:32;24.45;90.15
67722;SHT31;58309;45.292;11.820;2023-09-18T07:58:59;24.42;90.13
67722;SHT31;58309;45.292;11.820;2023-09-18T08:01:25;24.48;90.17
67722;SHT31;58309;45.292;11.820;2023-09-18T08:03:51;24.45;90.20
67722;SHT31;58309;45.292;11.820;2023-09-18T08:06:16;24.43;90.44
67722;SHT31;58309;45.292;11.820;2023-09-18T08:08:44;24.60;90.35
67722;SHT31;58309;45.292;11.820;2023-09-18T08:11:10;24.76;89.23
67722;SHT31;58309;45.292;11.820;2023-09-18T08:13:36;24.90;89.14
67722;SHT31;58309;45.292;11.820;2023-09-18T08:16:03;25.03;87.50
67722;SHT31;58309;45.292;11.820;2023-09-18T08:18:29;25.24;87.45
67722;SHT31;58309;45.292;11.820;2023-09-18T08:20:55;25.25;87.86
67722;SHT31;58309;45.292;11.820;2023-09-18T08:23:23;25.51;86.92
67722;SHT31;58309;45.292;11.820;2023-09-18T08:25:48;25.24;87.68
67722;SHT31;58309;45.292;11.820;2023-09-18T08:28:17;25.51;86.86
67722;SHT31;58309;45.292;11.820;2023-09-18T08:30:43;25.58;86.30
67722;SHT31;58309;45.292;11.820;2023-09-18T08:33:13;25.63;86.33
67722;SHT31;58309;45.292;11.820;2023-09-18T08:35:39;25.73;86.22
67722;SHT31;58309;45.292;11.820;2023-09-18T08:38:05;25.88;85.72
67722;SHT31;58309;45.292;11.820;2023-09-18T08:40:31;25.96;85.44
67722;SHT31;58309;45.292;11.820;2023-09-18T08:42:58;25.69;86.04
67722;SHT31;58309;45.292;11.820;2023-09-18T08:45:35;25.55;86.39
67722;SHT31;58309;45.292;11.820;2023-09-18T08:48:01;25.15;87.29
67722;SHT31;58309;45.292;11.820;2023-09-18T08:50:27;25.07;87.83
67722;SHT31;58309;45.292;11.820;2023-09-18T08:52:54;25.13;87.53
67722;SHT31;58309;45.292;11.820;2023-09-18T08:55:20;25.06;88.20
67722;SHT31;58309;45.292;11.820;2023-09-18T08:57:46;25.13;87.75
67722;SHT31;58309;45.292;11.820;2023-09-18T09:00:13;25.27;88.10
67722;SHT31;58309;45.292;11.820;2023-09-18T09:02:43;25.06;88.54
67722;SHT31;58309;45.292;11.820;2023-09-18T09:05:09;25.10;88.77
67722;SHT31;58309;45.292;11.820;2023-09-18T09:07:34;25.24;88.22
67722;SHT31;58309;45.292;11.820;2023-09-18T09:13:14;25.35;88.61
67722;SHT31;58309;45.292;11.820;2023-09-18T09:15:47;25.27;88.81
67722;SHT31;58309;45.292;11.820;2023-09-18T09:18:13;25.48;88.47
67722;SHT31;58309;45.292;11.820;2023-09-18T09:20:40;25.65;88.20
67722;SHT31;58309;45.292;11.820;2023-09-18T09:23:08;25.58;87.71
67722;SHT31;58309;45.292;11.820;2023-09-18T09:25:35;25.46;88.53
67722;SHT31;58309;45.292;11.820;2023-09-18T09:28:03;25.25;89.19
67722;SHT31;58309;45.292;11.820;2023-09-18T09:30:30;24.90;90.06
67722;SHT31;58309;45.292;11.820;2023-09-18T09:32:57;25.13;89.93
67722;SHT31;58309;45.292;11.820;2023-09-18T09:35:28;25.15;89.47
67722;SHT31;58309;45.292;11.820;2023-09-18T09:38:00;25.23;88.67
67722;SHT31;58309;45.292;11.820;2023-09-18T09:40:26;25.45;88.22
67722;SHT31;58309;45.292;11.820;2023-09-18T09:42:54;25.86;87.44
67722;SHT31;58309;45.292;11.820;2023-09-18T09:45:26;26.03;85.55
67722;SHT31;58309;45.292;11.820;2023-09-18T09:47:53;26.58;84.62
67722;SHT31;58309;45.292;11.820;2023-09-18T09:50:19;26.54;84.53
67722;SHT31;58309;45.292;11.820;2023-09-18T09:52:49;26.70;83.99
67722;SHT31;58309;45.292;11.820;2023-09-18T09:55:23;26.73;83.57
67722;SHT31;58309;45.292;11.820;2023-09-18T09:57:54;26.64;83.94
67722;SHT31;58309;45.292;11.820;2023-09-18T10:00:23;26.61;83.06
67722;SHT31;58309;45.292;11.820;2023-09-18T10:02:59;26.58;82.23
67722;SHT31;58309;45.292;11.820;2023-09-18T10:05:31;26.60;82.09
67722;SHT31;58309;45.292;11.820;2023-09-18T10:07:58;26.71;83.12
67722;SHT31;58309;45.292;11.820;2023-09-18T10:10:35;26.68;82.41
67722;SHT31;58309;45.292;11.820;2023-09-18T10:13:12;26.81;82.65
67722;SHT31;58309;45.292;11.820;2023-09-18T10:15:40;26.98;81.85
67722;SHT31;58309;45.292;11.820;2023-09-18T10:21:24;27.93;79.13
67722;SHT31;58309;45.292;11.820;2023-09-18T10:24:08;27.73;78.90
67722;SHT31;58309;45.292;11.820;2023-09-18T10:26:41;27.82;78.60
67722;SHT31;58309;45.292;11.820;2023-09-18T10:29:13;27.69;78.53
67722;SHT31;58309;45.292;11.820;2023-09-18T10:31:40;27.80;78.45
67722;SHT31;58309;45.292;11.820;2023-09-18T10:34:07;27.83;77.98
67722;SHT31;58309;45.292;11.820;2023-09-18T10:36:33;27.90;78.11
67722;SHT31;58309;45.292;11.820;2023-09-18T10:39:00;27.08;79.43
67722;SHT31;58309;45.292;11.820;2023-09-18T10:41:26;27.12;80.91
67722;SHT31;58309;45.292;11.820;2023-09-18T10:43:53;27.06;81.42
67722;SHT31;58309;45.292;11.820;2023-09-18T10:46:23;26.92;81.86
67722;SHT31;58309;45.292;11.820;2023-09-18T10:48:50;26.84;82.30
67722;SHT31;58309;45.292;11.820;2023-09-18T10:51:20;26.63;82.00
67722;SHT31;58309;45.292;11.820;2023-09-18T10:53:47;26.58;83.26
67722;SHT31;58309;45.292;11.820;2023-09-18T10:56:15;26.50;83.32
67722;SHT31;58309;45.292;11.820;2023-09-18T10:58:43;26.44;82.91
67722;SHT31;58309;45.292;11.820;2023-09-18T11:01:11;26.44;83.68
67722;SHT31;58309;45.292;11.820;2023-09-18T11:03:38;26.44;84.00
67722;SHT31;58309;45.292;11.820;2023-09-18T11:06:08;26.43;83.39
67722;SHT31;58309;45.292;11.820;2023-09-18T11:08:49;26.37;83.54
67722;SHT31;58309;45.292;11.820;2023-09-18T11:11:18;26.30;82.98
67722;SHT31;58309;45.292;11.820;2023-09-18T11:13:51;26.36;83.54
67722;SHT31;58309;45.292;11.820;2023-09-18T11:21:28;26.37;82.36
67722;SHT31;58309;45.292;11.820;2023-09-18T11:24:21;26.24;82.02
67722;SHT31;58309;45.292;11.820;2023-09-18T11:26:49;26.34;81.76
67722;SHT31;58309;45.292;11.820;2023-09-18T11:29:21;26.30;81.80
67722;SHT31;58309;45.292;11.820;2023-09-18T11:31:55;26.39;81.39
67722;SHT31;58309;45.292;11.820;2023-09-18T11:34:28;26.36;80.79
67722;SHT31;58309;45.292;11.820;2023-09-18T11:36:54;26.43;80.80
67722;SHT31;58309;45.292;11.820;2023-09-18T11:39:52;26.53;80.72
67722;SHT31;58309;45.292;11.820;2023-09-18T11:42:20;26.80;80.94
67722;SHT31;58309;45.292;11.820;2023-09-18T11:44:50;26.96;80.45
67722;SHT31;58309;45.292;11.820;2023-09-18T11:47:23;26.98;80.47
67722;SHT31;58309;45.292;11.820;2023-09-18T11:49:58;27.08;80.82
67722;SHT31;58309;45.292;11.820;2023-09-18T11:52:28;27.12;80.54
67722;SHT31;58309;45.292;11.820;2023-09-18T11:54:59;27.09;80.69
67722;SHT31;58309;45.292;11.820;2023-09-18T11:57:25;27.06;80.20
67722;SHT31;58309;45.292;11.820;2023-09-18T11:59:51;27.29;79.75
67722;SHT31;58309;45.292;11.820;2023-09-18T12:02:27;27.26;79.90
67722;SHT31;58309;45.292;11.820;2023-09-18T12:04:56;27.35;79.68
67722;SHT31;58309;45.292;11.820;2023-09-18T12:07:22;27.01;80.83
67722;SHT31;58309;45.292;11.820;2023-09-18T12:09:48;26.88;81.18
67722;SHT31;58309;45.292;11.820;2023-09-18T12:12:15;26.94;81.47
67722;SHT31;58309;45.292;11.820;2023-09-18T12:14:41;26.96;81.32
67722;SHT31;58309;45.292;11.820;2023-09-18T12:17:07;26.84;81.31
67722;SHT31;58309;45.292;11.820;2023-09-18T12:19:34;26.88;81.53
67722;SHT31;58309;45.292;11.820;2023-09-18T12:22:00;27.05;81.66
67722;SHT31;58309;45.292;11.820;2023-09-18T12:24:26;26.94;81.84
67722;SHT31;58309;45.292;11.820;2023-09-18T12:26:53;27.06;81.25
67722;SHT31;58309;45.292;11.820;2023-09-18T12:29:20;27.11;81.65
67722;SHT31;58309;45.292;11.820;2023-09-18T12:31:45;27.16;81.50
67722;SHT31;58309;45.292;11.820;2023-09-18T12:34:16;27.08;81.68
67722;SHT31;58309;45.292;11.820;2023-09-18T12:36:43;27.15;81.95
67722;SHT31;58309;45.292;11.820;2023-09-18T12:39:08;27.06;81.95
67722;SHT31;58309;45.292;11.820;2023-09-18T12:41:36;27.04;82.48
67722;SHT31;58309;45.292;11.820;2023-09-18T12:44:03;26.95;82.23
67722;SHT31;58309;45.292;11.820;2023-09-18T12:46:31;27.01;82.50
67722;SHT31;58309;45.292;11.820;2023-09-18T12:48:56;27.12;82.28
67722;SHT31;58309;45.292;11.820;2023-09-18T12:51:29;27.15;82.44
67722;SHT31;58309;45.292;11.820;2023-09-18T12:54:00;27.09;82.59
67722;SHT31;58309;45.292;11.820;2023-09-18T12:56:26;27.26;81.90
67722;SHT31;58309;45.292;11.820;2023-09-18T12:58:51;27.36;82.04
67722;SHT31;58309;45.292;11.820;2023-09-18T13:01:17;27.29;82.24
67722;SHT31;58309;45.292;11.820;2023-09-18T13:03:46;27.19;82.39
67722;SHT31;58309;45.292;11.820;2023-09-18T13:06:16;27.08;83.10
67722;SHT31;58309;45.292;11.820;2023-09-18T13:08:46;26.73;84.15
67722;SHT31;58309;45.292;11.820;2023-09-18T13:11:12;26.98;83.61
67722;SHT31;58309;45.292;11.820;2023-09-18T13:13:39;27.22;83.00
67722;SHT31;58309;45.292;11.820;2023-09-18T13:16:07;27.39;82.90
67722;SHT31;58309;45.292;11.820;2023-09-18T13:18:37;27.25;82.59
67722;SHT31;58309;45.292;11.820;2023-09-18T13:21:12;27.09;83.59
67722;SHT31;58309;45.292;11.820;2023-09-18T13:23:37;27.35;82.59
67722;SHT31;58309;45.292;11.820;2023-09-18T13:26:04;27.46;82.67
67722;SHT31;58309;45.292;11.820;2023-09-18T13:28:30;27.26;82.65
67722;SHT31;58309;45.292;11.820;2023-09-18T13:30:58;27.25;82.21
67722;SHT31;58309;45.292;11.820;2023-09-18T13:33:25;27.19;82.69
67722;SHT31;58309;45.292;11.820;2023-09-18T13:35:51;27.22;82.90
67722;SHT31;58309;45.292;11.820;2023-09-18T13:38:18;27.28;82.39
67722;SHT31;58309;45.292;11.820;2023-09-18T13:40:46;27.33;82.45
67722;SHT31;58309;45.292;11.820;2023-09-18T13:43:13;27.28;82.35
67722;SHT31;58309;45.292;11.820;2023-09-18T13:45:41;27.25;82.54
67722;SHT31;58309;45.292;11.820;2023-09-18T13:48:07;27.11;83.27
67722;SHT31;58309;45.292;11.820;2023-09-18T13:50:35;26.94;84.10
67722;SHT31;58309;45.292;11.820;2023-09-18T13:53:01;26.67;86.31
67722;SHT31;58309;45.292;11.820;2023-09-18T13:55:29;26.61;86.11
67722;SHT31;58309;45.292;11.820;2023-09-18T13:57:54;26.48;85.90
67722;SHT31;58309;45.292;11.820;2023-09-18T14:00:21;26.55;86.69
67722;SHT31;58309;45.292;11.820;2023-09-18T14:02:47;26.55;85.69
67722;SHT31;58309;45.292;11.820;2023-09-18T14:05:14;26.63;85.93
67722;SHT31;58309;45.292;11.820;2023-09-18T14:07:40;26.80;85.19
67722;SHT31;58309;45.292;11.820;2023-09-18T14:10:10;26.92;85.59
67722;SHT31;58309;45.292;11.820;2023-09-18T14:12:39;27.09;86.18
67722;SHT31;58309;45.292;11.820;2023-09-18T14:15:08;27.19;84.80
67722;SHT31;58309;45.292;11.820;2023-09-18T14:17:37;26.99;85.15
67722;SHT31;58309;45.292;11.820;2023-09-18T14:20:04;26.95;85.45
67722;SHT31;58309;45.292;11.820;2023-09-18T14:22:35;26.92;86.98
67722;SHT31;58309;45.292;11.820;2023-09-18T14:25:00;26.85;86.07
67722;SHT31;58309;45.292;11.820;2023-09-18T14:30:41;26.50;86.54
67722;SHT31;58309;45.292;11.820;2023-09-18T14:33:15;26.37;87.57
67722;SHT31;58309;45.292;11.820;2023-09-18T14:35:41;26.29;86.65
67722;SHT31;58309;45.292;11.820;2023-09-18T14:38:06;26.30;86.90
67722;SHT31;58309;45.292;11.820;2023-09-18T14:40:32;26.26;86.67
67722;SHT31;58309;45.292;11.820;2023-09-18T14:42:57;26.33;86.79
67722;SHT31;58309;45.292;11.820;2023-09-18T14:45:23;26.43;87.43
67722;SHT31;58309;45.292;11.820;2023-09-18T14:47:48;26.43;85.66
67722;SHT31;58309;45.292;11.820;2023-09-18T14:50:14;26.51;85.76
67722;SHT31;58309;45.292;11.820;2023-09-18T14:52:39;26.51;85.99
67722;SHT31;58309;45.292;11.820;2023-09-18T14:55:05;26.55;85.31
67722;SHT31;58309;45.292;11.820;2023-09-18T14:57:30;26.57;85.47
67722;SHT31;58309;45.292;11.820;2023-09-18T14:59:56;26.67;85.91
67722;SHT31;58309;45.292;11.820;2023-09-18T15:02:21;26.67;85.92
67722;SHT31;58309;45.292;11.820;2023-09-18T15:04:47;26.75;86.10
67722;SHT31;58309;45.292;11.820;2023-09-18T15:07:13;26.58;86.42
67722;SHT31;58309;45.292;11.820;2023-09-18T15:09:39;26.67;86.10
67722;SHT31;58309;45.292;11.820;2023-09-18T15:12:06;26.54;85.87
67722;SHT31;58309;45.292;11.820;2023-09-18T15:14:34;26.61;86.14
67722;SHT31;58309;45.292;11.820;2023-09-18T15:17:00;26.63;85.68
67722;SHT31;58309;45.292;11.820;2023-09-18T15:19:26;26.58;85.47
67722;SHT31;58309;45.292;11.820;2023-09-18T15:21:51;26.55;85.71
67722;SHT31;58309;45.292;11.820;2023-09-18T15:24:18;26.51;86.41
67722;SHT31;58309;45.292;11.820;2023-09-18T15:26:43;26.39;86.03
67722;SHT31;58309;45.292;11.820;2023-09-18T15:29:09;26.22;86.25
67722;SHT31;58309;45.292;11.820;2023-09-18T15:31:35;26.12;87.14